Time;durP1;ratioP1;P1;durP2;ratioP2;P2;SDS_P1;SDS_P2;PMS_P1;PMS_P2;Temp;Humidity;BMP_temperature;BMP_pressure;BME280_temperature;BME280_humidity;BME280_pressure;Samples;Min_cycle;Max_cycle;Signal;HPM_P1;HPM_P2
2022/01/06 00:01:30;;;;;;;0.50;0.50;;;;;;;;;;5055499;28;20247;-63
2022/01/06 00:03:56;;;;;;;0.70;0.68;;;;;;;;;;5055257;28;20274;-62
2022/01/06 00:06:23;;;;;;;0.60;0.50;;;;;;;;;;5055578;28;20071;-63
2022/01/06 00:08:48;;;;;;;2.08;0.70;;;;;;;;;;5055473;28;20025;-63
2022/01/06 00:11:14;;;;;;;1.15;0.70;;;;;;;;;;5055283;28;20040;-64
2022/01/06 00:13:56;;;;;;;0.47;0.45;;;;;;;;;;5055509;28;20052;-64
2022/01/06 00:24:09;;;;;;;0.88;0.40;;;;;;;;;;5055094;28;20028;-62
2022/01/06 00:26:34;;;;;;;1.40;0.30;;;;;;;;;;5054008;28;20021;-63
2022/01/06 00:29:00;;;;;;;0.80;0.60;;;;;;;;;;5055119;28;20285;-63
2022/01/06 00:31:25;;;;;;;1.45;0.50;;;;;;;;;;5054922;28;20278;-64
2022/01/06 00:33:50;;;;;;;1.50;0.50;;;;;;;;;;5055054;28;20033;-63
2022/01/06 00:36:15;;;;;;;1.20;0.43;;;;;;;;;;5054981;28;20025;-63
2022/01/06 00:38:40;;;;;;;0.55;0.40;;;;;;;;;;5055134;28;20140;-63
2022/01/06 00:41:05;;;;;;;0.93;0.70;;;;;;;;;;5054849;28;20028;-65
2022/01/06 00:43:31;;;;;;;0.70;0.50;;;;;;;;;;5054804;28;20250;-64
2022/01/06 00:45:56;;;;;;;0.77;0.55;;;;;;;;;;5054708;28;20012;-64
2022/01/06 00:48:21;;;;;;;0.53;0.40;;;;;;;;;;5054885;28;20020;-64
2022/01/06 00:50:46;;;;;;;0.55;0.50;;;;;;;;;;5053336;28;20258;-64
2022/01/06 00:53:11;;;;;;;1.73;0.70;;;;;;;;;;5054742;28;20027;-64
2022/01/06 00:55:37;;;;;;;0.65;0.50;;;;;;;;;;5053263;28;20254;-64
2022/01/06 00:58:03;;;;;;;1.33;0.50;;;;;;;;;;5054464;28;20029;-64
2022/01/06 01:00:37;;;;;;;0.88;0.60;;;;;;;;;;5053364;28;20119;-63
2022/01/06 01:03:04;;;;;;;0.30;0.30;;;;;;;;;;5054476;28;20017;-63
2022/01/06 01:05:29;;;;;;;1.30;0.35;;;;;;;;;;5053644;28;20484;-64
2022/01/06 01:07:55;;;;;;;0.40;0.40;;;;;;;;;;5054318;28;20025;-63
2022/01/06 01:10:20;;;;;;;1.33;0.50;;;;;;;;;;5054305;28;20285;-63
2022/01/06 01:12:48;;;;;;;1.38;0.80;;;;;;;;;;5053062;28;20017;-63
2022/01/06 01:15:19;;;;;;;1.52;0.60;;;;;;;;;;5054228;28;20021;-63
2022/01/06 01:17:45;;;;;;;1.10;1.00;;;;;;;;;;5054129;28;20032;-64
2022/01/06 01:20:10;;;;;;;0.80;0.30;;;;;;;;;;5054786;28;20017;-64
2022/01/06 01:22:36;;;;;;;1.00;0.40;;;;;;;;;;5054228;28;20028;-64
2022/01/06 01:25:01;;;;;;;0.60;0.40;;;;;;;;;;5053898;28;20742;-64
2022/01/06 01:27:27;;;;;;;0.60;0.40;;;;;;;;;;5053992;28;20025;-64
2022/01/06 01:29:58;;;;;;;0.65;0.40;;;;;;;;;;5053955;28;20026;-64
2022/01/06 01:32:33;;;;;;;0.50;0.40;;;;;;;;;;5054084;28;20380;-64
2022/01/06 01:35:02;;;;;;;0.65;0.43;;;;;;;;;;5053808;28;20017;-63
2022/01/06 01:37:28;;;;;;;0.60;0.38;;;;;;;;;;5053742;28;20044;-63
2022/01/06 01:39:54;;;;;;;0.57;0.50;;;;;;;;;;5053737;28;20403;-63
2022/01/06 01:42:19;;;;;;;0.70;0.30;;;;;;;;;;5053841;28;20025;-63
2022/01/06 01:44:45;;;;;;;1.50;0.60;;;;;;;;;;5054009;28;20016;-64
2022/01/06 01:47:14;;;;;;;1.02;0.63;;;;;;;;;;5053567;28;20099;-62
2022/01/06 01:50:11;;;;;;;0.95;0.50;;;;;;;;;;5053678;28;20021;-63
2022/01/06 01:52:28;;;;;;;0.73;0.40;;;;;;;;;;5053358;28;20036;-63
2022/01/06 01:54:53;;;;;;;1.37;0.60;;;;;;;;;;5052444;28;20017;-64
2022/01/06 01:57:18;;;;;;;0.50;0.35;;;;;;;;;;5053398;28;20258;-64
2022/01/06 01:59:44;;;;;;;0.47;0.40;;;;;;;;;;5053367;28;20177;-64
2022/01/06 02:02:09;;;;;;;0.20;0.20;;;;;;;;;;5053343;28;20020;-64
2022/01/06 02:04:34;;;;;;;0.88;0.38;;;;;;;;;;5053143;28;20438;-64
2022/01/06 02:06:59;;;;;;;0.83;0.30;;;;;;;;;;5053401;28;20096;-64
2022/01/06 02:09:25;;;;;;;0.63;0.40;;;;;;;;;;5053143;28;20278;-63
2022/01/06 02:11:51;;;;;;;0.55;0.45;;;;;;;;;;5053239;28;20316;-64
2022/01/06 02:14:16;;;;;;;1.08;0.60;;;;;;;;;;5053121;28;20448;-63
2022/01/06 02:16:41;;;;;;;1.47;0.60;;;;;;;;;;5052996;28;20031;-63
2022/01/06 02:19:07;;;;;;;1.27;0.40;;;;;;;;;;5052267;28;20246;-63
2022/01/06 02:21:32;;;;;;;0.63;0.33;;;;;;;;;;5052834;28;20409;-64
2022/01/06 02:23:57;;;;;;;1.27;0.45;;;;;;;;;;5052753;28;20540;-64
2022/01/06 02:26:22;;;;;;;1.03;0.50;;;;;;;;;;5053031;28;20056;-63
2022/01/06 02:28:47;;;;;;;1.08;0.45;;;;;;;;;;5052875;28;20273;-63
2022/01/06 02:31:13;;;;;;;0.70;0.50;;;;;;;;;;5053024;28;20052;-63
2022/01/06 02:33:38;;;;;;;1.25;0.60;;;;;;;;;;5052751;28;20615;-63
2022/01/06 02:36:03;;;;;;;0.85;0.47;;;;;;;;;;5052646;28;20460;-63
2022/01/06 02:38:29;;;;;;;1.58;0.38;;;;;;;;;;5052750;28;20486;-63
2022/01/06 02:40:54;;;;;;;0.50;0.30;;;;;;;;;;5052646;28;20468;-63
2022/01/06 02:43:22;;;;;;;0.30;0.30;;;;;;;;;;5052544;28;20245;-63
2022/01/06 02:45:48;;;;;;;1.17;0.40;;;;;;;;;;5052521;28;20017;-64
2022/01/06 02:48:14;;;;;;;0.85;0.40;;;;;;;;;;5052497;28;20682;-64
2022/01/06 02:50:41;;;;;;;1.67;0.50;;;;;;;;;;5052579;28;20056;-63
2022/01/06 02:53:06;;;;;;;0.60;0.40;;;;;;;;;;5052339;28;20020;-63
2022/01/06 02:55:32;;;;;;;0.30;0.30;;;;;;;;;;5051021;28;20025;-63
2022/01/06 02:57:58;;;;;;;0.82;0.55;;;;;;;;;;5051045;28;20017;-64
2022/01/06 03:00:23;;;;;;;0.40;0.40;;;;;;;;;;5052432;28;20059;-64
2022/01/06 03:02:48;;;;;;;0.37;0.37;;;;;;;;;;5052337;28;20301;-63
2022/01/06 03:05:15;;;;;;;1.33;0.40;;;;;;;;;;5052068;28;20270;-63
2022/01/06 03:07:40;;;;;;;0.90;0.60;;;;;;;;;;5052265;28;20027;-63
2022/01/06 03:10:09;;;;;;;1.50;0.50;;;;;;;;;;5052019;28;20111;-63
2022/01/06 03:12:39;;;;;;;1.02;0.35;;;;;;;;;;5052339;28;20049;-64
2022/01/06 03:15:08;;;;;;;0.47;0.25;;;;;;;;;;5052154;28;20040;-64
2022/01/06 03:17:34;;;;;;;0.93;0.30;;;;;;;;;;5052084;28;20013;-64
2022/01/06 03:19:59;;;;;;;0.77;0.30;;;;;;;;;;5052291;28;20020;-64
2022/01/06 03:22:24;;;;;;;0.73;0.40;;;;;;;;;;5052177;28;20040;-64
2022/01/06 03:24:49;;;;;;;0.37;0.30;;;;;;;;;;5052047;28;20104;-64
2022/01/06 03:27:15;;;;;;;1.02;0.63;;;;;;;;;;5052003;28;20238;-64
2022/01/06 03:29:40;;;;;;;0.50;0.40;;;;;;;;;;5054419;28;20052;-63
2022/01/06 03:32:05;;;;;;;1.93;0.50;;;;;;;;;;5056024;28;20070;-63
2022/01/06 03:34:31;;;;;;;0.60;0.52;;;;;;;;;;5056188;28;20246;-62
2022/01/06 03:36:57;;;;;;;0.63;0.45;;;;;;;;;;5055963;28;20020;-63
2022/01/06 03:39:22;;;;;;;0.45;0.30;;;;;;;;;;5056057;28;20364;-63
2022/01/06 03:41:47;;;;;;;1.17;0.67;;;;;;;;;;5055983;28;20476;-64
2022/01/06 03:44:12;;;;;;;0.50;0.50;;;;;;;;;;5056273;28;20249;-64
2022/01/06 03:46:38;;;;;;;0.47;0.47;;;;;;;;;;5055971;28;20658;-64
2022/01/06 03:49:03;;;;;;;0.38;0.35;;;;;;;;;;5055805;28;20033;-64
2022/01/06 03:51:28;;;;;;;0.32;0.30;;;;;;;;;;5055625;28;20376;-63
2022/01/06 03:53:53;;;;;;;0.45;0.40;;;;;;;;;;5055759;28;20153;-65
2022/01/06 03:56:19;;;;;;;0.95;0.60;;;;;;;;;;5055789;28;20060;-64
2022/01/06 03:58:44;;;;;;;0.40;0.40;;;;;;;;;;5055745;28;20029;-64
2022/01/06 04:01:10;;;;;;;0.50;0.40;;;;;;;;;;5055658;28;20029;-63
2022/01/06 04:03:35;;;;;;;0.60;0.50;;;;;;;;;;5055343;28;20035;-63
2022/01/06 04:06:00;;;;;;;0.60;0.60;;;;;;;;;;5055328;28;20048;-64
2022/01/06 04:08:25;;;;;;;0.77;0.43;;;;;;;;;;5055535;28;20266;-63
2022/01/06 04:10:51;;;;;;;0.33;0.30;;;;;;;;;;5055596;28;20281;-64
2022/01/06 04:13:16;;;;;;;0.50;0.40;;;;;;;;;;5055382;28;20250;-63
2022/01/06 04:15:41;;;;;;;0.22;0.20;;;;;;;;;;5055501;28;20103;-64
2022/01/06 04:18:06;;;;;;;0.77;0.40;;;;;;;;;;5055249;28;20028;-64
2022/01/06 04:20:31;;;;;;;0.97;0.43;;;;;;;;;;5055389;28;20040;-63
2022/01/06 04:22:57;;;;;;;0.70;0.40;;;;;;;;;;5055220;28;20345;-62
2022/01/06 04:25:22;;;;;;;0.90;0.77;;;;;;;;;;5055159;28;20380;-63
2022/01/06 04:27:47;;;;;;;1.00;0.57;;;;;;;;;;5055126;28;20281;-64
2022/01/06 04:30:13;;;;;;;0.77;0.65;;;;;;;;;;5055093;28;20341;-64
2022/01/06 04:32:38;;;;;;;0.40;0.40;;;;;;;;;;5055237;28;20033;-64
2022/01/06 04:35:04;;;;;;;0.65;0.45;;;;;;;;;;5054982;28;20017;-63
2022/01/06 04:37:29;;;;;;;0.93;0.60;;;;;;;;;;5054878;28;20464;-64
2022/01/06 04:39:55;;;;;;;1.67;0.50;;;;;;;;;;5054820;28;20059;-65
2022/01/06 04:42:20;;;;;;;0.82;0.57;;;;;;;;;;5054415;28;20025;-64
2022/01/06 04:44:45;;;;;;;0.80;0.50;;;;;;;;;;5055179;28;20386;-64
2022/01/06 04:47:10;;;;;;;0.60;0.40;;;;;;;;;;5054805;28;20254;-63
2022/01/06 04:49:36;;;;;;;0.63;0.50;;;;;;;;;;5054666;28;20303;-63
2022/01/06 04:52:01;;;;;;;0.73;0.30;;;;;;;;;;5053250;28;20102;-63
2022/01/06 04:54:26;;;;;;;0.68;0.40;;;;;;;;;;5054826;28;20250;-63
2022/01/06 04:56:51;;;;;;;1.25;0.60;;;;;;;;;;5054558;28;20479;-63
2022/01/06 04:59:17;;;;;;;1.47;0.60;;;;;;;;;;5054509;28;20025;-64
2022/01/06 05:01:42;;;;;;;0.67;0.50;;;;;;;;;;5053328;28;20246;-64
2022/01/06 05:04:07;;;;;;;1.23;0.60;;;;;;;;;;5053240;28;20573;-64
2022/01/06 05:06:32;;;;;;;1.73;0.60;;;;;;;;;;5054555;28;20443;-63
2022/01/06 05:08:57;;;;;;;0.87;0.50;;;;;;;;;;5054276;28;20273;-62
2022/01/06 05:11:22;;;;;;;0.98;0.50;;;;;;;;;;5054244;28;20285;-62
2022/01/06 05:13:48;;;;;;;0.80;0.40;;;;;;;;;;5054226;28;20029;-64
2022/01/06 05:16:13;;;;;;;0.40;0.30;;;;;;;;;;5054288;28;20013;-64
2022/01/06 05:18:38;;;;;;;1.23;0.57;;;;;;;;;;5054330;28;20016;-64
2022/01/06 05:21:04;;;;;;;1.13;0.60;;;;;;;;;;5054058;28;20032;-64
2022/01/06 05:23:29;;;;;;;0.60;0.50;;;;;;;;;;5054024;28;20025;-64
2022/01/06 05:25:56;;;;;;;1.33;0.70;;;;;;;;;;5053970;28;20067;-63
2022/01/06 05:28:21;;;;;;;1.75;0.60;;;;;;;;;;5054078;28;20020;-64
2022/01/06 05:30:46;;;;;;;0.40;0.40;;;;;;;;;;5053929;28;20376;-64
2022/01/06 05:33:12;;;;;;;1.05;0.60;;;;;;;;;;5053890;28;20074;-64
2022/01/06 05:35:38;;;;;;;0.80;0.75;;;;;;;;;;5054161;28;20013;-64
2022/01/06 05:38:03;;;;;;;1.38;0.68;;;;;;;;;;5054122;28;20102;-64
2022/01/06 05:40:28;;;;;;;0.68;0.65;;;;;;;;;;5054245;28;20025;-64
2022/01/06 05:42:53;;;;;;;0.83;0.50;;;;;;;;;;5053766;28;20021;-64
2022/01/06 05:45:20;;;;;;;0.67;0.50;;;;;;;;;;5053635;28;20028;-64
2022/01/06 05:47:45;;;;;;;1.23;0.85;;;;;;;;;;5053633;28;20333;-63
2022/01/06 05:50:10;;;;;;;0.30;0.30;;;;;;;;;;5053554;28;20096;-62
2022/01/06 05:52:35;;;;;;;0.93;0.50;;;;;;;;;;5053583;28;20049;-62
2022/01/06 05:55:01;;;;;;;1.08;0.40;;;;;;;;;;5053436;28;20250;-63
2022/01/06 05:57:26;;;;;;;1.95;0.60;;;;;;;;;;5053370;28;20017;-63
2022/01/06 05:59:52;;;;;;;0.70;0.47;;;;;;;;;;5053428;28;20055;-64
2022/01/06 06:02:17;;;;;;;0.55;0.55;;;;;;;;;;5052485;28;20112;-64
2022/01/06 06:04:42;;;;;;;1.40;0.65;;;;;;;;;;5053311;28;20067;-63
2022/01/06 06:07:07;;;;;;;1.00;0.70;;;;;;;;;;5053212;28;20402;-63
2022/01/06 06:09:32;;;;;;;0.90;0.40;;;;;;;;;;5053182;28;20708;-63
2022/01/06 06:11:57;;;;;;;2.00;0.50;;;;;;;;;;5053088;28;20051;-63
2022/01/06 06:14:23;;;;;;;1.67;0.70;;;;;;;;;;5053253;28;20785;-63
2022/01/06 06:16:48;;;;;;;1.13;0.60;;;;;;;;;;5053134;28;20029;-63
2022/01/06 06:19:13;;;;;;;0.83;0.57;;;;;;;;;;5053082;28;20840;-63
2022/01/06 06:21:38;;;;;;;1.15;0.50;;;;;;;;;;5052966;28;20258;-63
2022/01/06 06:24:03;;;;;;;1.07;0.60;;;;;;;;;;5052839;28;20025;-63
2022/01/06 06:26:29;;;;;;;1.42;0.60;;;;;;;;;;5053075;28;20254;-63
2022/01/06 06:28:54;;;;;;;0.73;0.55;;;;;;;;;;5051580;28;20067;-63
2022/01/06 06:31:19;;;;;;;1.43;0.70;;;;;;;;;;5052773;28;20036;-63
2022/01/06 06:33:45;;;;;;;1.65;0.85;;;;;;;;;;5053087;28;20048;-63
2022/01/06 06:36:10;;;;;;;0.80;0.57;;;;;;;;;;5052760;28;20056;-64
2022/01/06 06:38:35;;;;;;;0.73;0.63;;;;;;;;;;5053110;28;20029;-63
2022/01/06 06:41:00;;;;;;;0.90;0.80;;;;;;;;;;5052619;28;20028;-63
2022/01/06 06:43:25;;;;;;;0.52;0.50;;;;;;;;;;5051325;28;20548;-63
2022/01/06 06:45:50;;;;;;;2.83;0.60;;;;;;;;;;5052553;28;20468;-64
2022/01/06 06:48:16;;;;;;;1.58;0.60;;;;;;;;;;5052874;28;20021;-64
2022/01/06 06:50:41;;;;;;;1.23;0.70;;;;;;;;;;5052644;28;20033;-63
2022/01/06 06:53:07;;;;;;;1.67;0.70;;;;;;;;;;5052375;28;20419;-63
2022/01/06 06:55:33;;;;;;;2.20;0.73;;;;;;;;;;5052312;28;20486;-64
2022/01/06 06:57:58;;;;;;;1.20;0.50;;;;;;;;;;5052303;28;20013;-63
2022/01/06 07:00:23;;;;;;;2.17;0.93;;;;;;;;;;5052511;28;20032;-63
2022/01/06 07:02:48;;;;;;;0.88;0.50;;;;;;;;;;5052354;28;20387;-63
2022/01/06 07:05:15;;;;;;;2.57;0.73;;;;;;;;;;5050393;28;20037;-62
2022/01/06 07:07:40;;;;;;;1.38;0.60;;;;;;;;;;5052672;28;20250;-63
2022/01/06 07:10:06;;;;;;;1.25;0.75;;;;;;;;;;5052088;28;20142;-63
2022/01/06 07:12:31;;;;;;;1.90;0.80;;;;;;;;;;5050997;28;20056;-64
2022/01/06 07:14:57;;;;;;;4.45;1.25;;;;;;;;;;5050846;28;20044;-64
2022/01/06 07:17:22;;;;;;;1.33;0.77;;;;;;;;;;5052523;28;20009;-63
2022/01/06 07:19:47;;;;;;;1.58;0.60;;;;;;;;;;5050835;28;20018;-64
2022/01/06 07:22:12;;;;;;;1.13;1.00;;;;;;;;;;5052134;28;20496;-63
2022/01/06 07:24:38;;;;;;;1.33;0.88;;;;;;;;;;5052467;28;20013;-63
2022/01/06 07:27:03;;;;;;;1.42;0.60;;;;;;;;;;5052339;28;20528;-64
2022/01/06 07:29:29;;;;;;;1.63;0.70;;;;;;;;;;5052343;28;20534;-64
2022/01/06 07:31:54;;;;;;;0.90;0.40;;;;;;;;;;5051950;28;20638;-63
2022/01/06 07:34:19;;;;;;;1.10;0.50;;;;;;;;;;5052060;28;20353;-63
2022/01/06 07:36:44;;;;;;;1.02;0.60;;;;;;;;;;5052013;28;20246;-64
2022/01/06 07:39:09;;;;;;;0.57;0.50;;;;;;;;;;5051994;28;20360;-63
2022/01/06 07:41:35;;;;;;;0.60;0.50;;;;;;;;;;5051892;28;20037;-63
2022/01/06 07:44:00;;;;;;;1.30;0.52;;;;;;;;;;5051901;28;20609;-63
2022/01/06 07:46:25;;;;;;;0.98;0.55;;;;;;;;;;5051942;28;20017;-63
2022/01/06 07:48:57;;;;;;;0.52;0.50;;;;;;;;;;5050713;28;20024;-64
2022/01/06 07:51:26;;;;;;;1.27;0.75;;;;;;;;;;5047582;28;20025;-63
2022/01/06 07:53:51;;;;;;;1.38;0.60;;;;;;;;;;5051343;28;20037;-63
2022/01/06 07:56:17;;;;;;;0.98;0.60;;;;;;;;;;5051217;28;20017;-63
2022/01/06 07:58:42;;;;;;;0.60;0.60;;;;;;;;;;5051027;28;20021;-64
2022/01/06 08:01:08;;;;;;;0.80;0.60;;;;;;;;;;5051112;28;20422;-64
2022/01/06 08:03:34;;;;;;;0.88;0.60;;;;;;;;;;5051030;28;20025;-64
2022/01/06 08:05:59;;;;;;;0.80;0.80;;;;;;;;;;5050916;28;20053;-64
2022/01/06 08:08:24;;;;;;;1.03;0.70;;;;;;;;;;5050984;28;20718;-64
2022/01/06 08:10:49;;;;;;;1.07;0.60;;;;;;;;;;5051049;28;20296;-65
2022/01/06 08:13:14;;;;;;;1.20;0.70;;;;;;;;;;5050813;28;20258;-64
2022/01/06 08:15:39;;;;;;;1.02;0.70;;;;;;;;;;5051658;28;20028;-64
2022/01/06 08:18:05;;;;;;;0.50;0.43;;;;;;;;;;5053248;28;20467;-64
2022/01/06 08:20:30;;;;;;;0.90;0.70;;;;;;;;;;5054960;28;20246;-64
2022/01/06 08:22:55;;;;;;;1.33;0.55;;;;;;;;;;5054338;28;20017;-63
2022/01/06 08:25:20;;;;;;;1.10;0.68;;;;;;;;;;5054897;28;20028;-63
2022/01/06 08:27:46;;;;;;;0.73;0.60;;;;;;;;;;5054313;28;20025;-64
2022/01/06 08:30:11;;;;;;;1.05;0.65;;;;;;;;;;5054449;28;20088;-64
2022/01/06 08:32:36;;;;;;;1.08;0.65;;;;;;;;;;5053469;28;20361;-64
2022/01/06 08:35:02;;;;;;;0.75;0.50;;;;;;;;;;5053388;28;20017;-64
2022/01/06 08:37:27;;;;;;;0.50;0.50;;;;;;;;;;5049979;28;20440;-63
2022/01/06 08:39:52;;;;;;;1.03;0.40;;;;;;;;;;5054190;28;20025;-63
2022/01/06 08:42:17;;;;;;;0.93;0.83;;;;;;;;;;5054262;28;20265;-63
2022/01/06 08:44:43;;;;;;;1.33;0.63;;;;;;;;;;5053378;28;20060;-62
2022/01/06 08:47:08;;;;;;;1.02;0.63;;;;;;;;;;5053742;28;20292;-63
2022/01/06 08:49:34;;;;;;;1.15;0.50;;;;;;;;;;5053820;28;20032;-64
2022/01/06 08:51:59;;;;;;;0.80;0.55;;;;;;;;;;5053661;28;20021;-64
2022/01/06 08:54:25;;;;;;;1.02;0.50;;;;;;;;;;5053908;28;20028;-63
2022/01/06 08:56:50;;;;;;;1.42;0.50;;;;;;;;;;5052449;28;20100;-62
2022/01/06 08:59:15;;;;;;;1.15;0.60;;;;;;;;;;5053980;28;20021;-64
2022/01/06 09:01:40;;;;;;;1.33;0.70;;;;;;;;;;5054613;28;20025;-63
2022/01/06 09:04:05;;;;;;;0.63;0.53;;;;;;;;;;5054214;28;20281;-63
2022/01/06 09:06:31;;;;;;;1.00;0.50;;;;;;;;;;5054500;28;20250;-64
2022/01/06 09:08:56;;;;;;;0.80;0.60;;;;;;;;;;5054343;28;20634;-64
2022/01/06 09:11:21;;;;;;;1.13;0.50;;;;;;;;;;5054634;28;20266;-63
2022/01/06 09:13:46;;;;;;;2.33;0.67;;;;;;;;;;5054335;28;20527;-64
2022/01/06 09:16:13;;;;;;;1.30;0.90;;;;;;;;;;5054320;28;20250;-62
2022/01/06 09:18:38;;;;;;;0.43;0.32;;;;;;;;;;5054364;28;20238;-62
2022/01/06 09:21:04;;;;;;;0.73;0.50;;;;;;;;;;5054399;28;20041;-63
2022/01/06 09:23:29;;;;;;;0.90;0.60;;;;;;;;;;5054319;28;20125;-63
2022/01/06 09:25:54;;;;;;;0.80;0.50;;;;;;;;;;5054061;28;20020;-63
2022/01/06 09:28:20;;;;;;;1.13;0.30;;;;;;;;;;5053726;28;20024;-63
2022/01/06 09:30:45;;;;;;;0.50;0.40;;;;;;;;;;5053406;28;20270;-62
2022/01/06 09:33:10;;;;;;;0.50;0.50;;;;;;;;;;5054261;28;20056;-63
2022/01/06 09:35:35;;;;;;;0.83;0.47;;;;;;;;;;5053802;28;20507;-64
2022/01/06 09:38:00;;;;;;;0.30;0.30;;;;;;;;;;5053796;28;20250;-63
2022/01/06 09:40:26;;;;;;;0.60;0.57;;;;;;;;;;5053964;28;20274;-63
2022/01/06 09:42:53;;;;;;;0.85;0.52;;;;;;;;;;5054387;28;20088;-63
2022/01/06 09:45:19;;;;;;;0.95;0.60;;;;;;;;;;5053711;28;20028;-64
2022/01/06 09:47:44;;;;;;;0.52;0.50;;;;;;;;;;5053713;28;20025;-64
2022/01/06 09:50:10;;;;;;;1.58;0.65;;;;;;;;;;5053649;28;20027;-63
2022/01/06 09:52:36;;;;;;;0.70;0.65;;;;;;;;;;5053657;28;20036;-63
2022/01/06 09:55:03;;;;;;;1.15;0.70;;;;;;;;;;5053474;28;20482;-63
2022/01/06 09:57:28;;;;;;;1.05;0.50;;;;;;;;;;5053478;28;20493;-62
2022/01/06 09:59:53;;;;;;;1.20;0.60;;;;;;;;;;5053379;28;20040;-63
2022/01/06 10:02:19;;;;;;;1.27;0.90;;;;;;;;;;5053509;28;20131;-62
2022/01/06 10:04:44;;;;;;;1.73;0.90;;;;;;;;;;5053268;28;20751;-62
2022/01/06 10:07:09;;;;;;;1.40;0.68;;;;;;;;;;5053334;28;20262;-63
2022/01/06 10:09:35;;;;;;;1.63;0.73;;;;;;;;;;5053456;28;20032;-63
2022/01/06 10:12:03;;;;;;;0.70;0.50;;;;;;;;;;5053151;28;20441;-62
2022/01/06 10:14:44;;;;;;;0.75;0.50;;;;;;;;;;5053287;28;20021;-62
2022/01/06 10:17:29;;;;;;;1.08;0.70;;;;;;;;;;5053107;28;20021;-63
2022/01/06 10:19:55;;;;;;;0.70;0.57;;;;;;;;;;5052660;28;20025;-63
2022/01/06 10:22:20;;;;;;;0.97;0.87;;;;;;;;;;5053040;28;20021;-64
2022/01/06 10:24:46;;;;;;;0.82;0.70;;;;;;;;;;5052997;28;20621;-63
2022/01/06 10:27:12;;;;;;;0.95;0.55;;;;;;;;;;5051682;28;20036;-63
2022/01/06 10:29:38;;;;;;;1.15;0.47;;;;;;;;;;5053168;28;20032;-64
2022/01/06 10:32:04;;;;;;;0.55;0.40;;;;;;;;;;5052700;28;20024;-63
2022/01/06 10:34:30;;;;;;;0.60;0.60;;;;;;;;;;5052907;28;20040;-63
2022/01/06 10:36:56;;;;;;;1.73;0.82;;;;;;;;;;5052710;28;20029;-63
2022/01/06 10:39:21;;;;;;;1.67;0.60;;;;;;;;;;5052301;28;20071;-62
2022/01/06 10:41:46;;;;;;;2.17;0.50;;;;;;;;;;5052698;28;20032;-63
2022/01/06 10:44:13;;;;;;;0.75;0.73;;;;;;;;;;5052985;28;20725;-63
2022/01/06 10:46:40;;;;;;;1.05;0.60;;;;;;;;;;5053006;28;20095;-63
2022/01/06 10:49:17;;;;;;;1.08;0.80;;;;;;;;;;5052460;28;20021;-63
2022/01/06 10:51:42;;;;;;;1.73;0.88;;;;;;;;;;5052558;28;20013;-63
2022/01/06 10:54:15;;;;;;;1.02;0.60;;;;;;;;;;5051476;28;20067;-63
2022/01/06 10:56:40;;;;;;;1.90;0.73;;;;;;;;;;5052644;28;20021;-63
2022/01/06 10:59:06;;;;;;;1.38;0.75;;;;;;;;;;5052358;28;20393;-62
2022/01/06 11:01:32;;;;;;;0.65;0.50;;;;;;;;;;5052306;28;20383;-63
2022/01/06 11:03:57;;;;;;;1.95;0.70;;;;;;;;;;5052142;28;20565;-63
2022/01/06 11:06:22;;;;;;;0.85;0.65;;;;;;;;;;5052330;28;20149;-63
2022/01/06 11:08:48;;;;;;;0.85;0.60;;;;;;;;;;5052309;28;20029;-64
2022/01/06 11:11:27;;;;;;;0.95;0.55;;;;;;;;;;5052196;28;20025;-63
2022/01/06 11:13:52;;;;;;;0.60;0.57;;;;;;;;;;5052448;28;20048;-63
2022/01/06 11:16:18;;;;;;;1.93;0.70;;;;;;;;;;5052300;28;20091;-63
2022/01/06 11:18:50;;;;;;;2.47;0.77;;;;;;;;;;5052343;28;20656;-63
2022/01/06 11:21:18;;;;;;;0.50;0.50;;;;;;;;;;5052135;28;20025;-63
2022/01/06 11:23:44;;;;;;;0.80;0.57;;;;;;;;;;5052177;28;20017;-61
2022/01/06 11:26:13;;;;;;;0.85;0.50;;;;;;;;;;5052012;28;20025;-63
2022/01/06 11:28:43;;;;;;;0.73;0.50;;;;;;;;;;5050972;28;20043;-63
2022/01/06 11:31:16;;;;;;;1.35;0.63;;;;;;;;;;5052229;28;20017;-63
2022/01/06 11:33:42;;;;;;;0.52;0.50;;;;;;;;;;5052082;28;20021;-62
2022/01/06 11:36:17;;;;;;;1.13;0.57;;;;;;;;;;5052203;28;20396;-62
2022/01/06 11:38:45;;;;;;;0.80;0.60;;;;;;;;;;5050991;28;20024;-62
2022/01/06 11:41:11;;;;;;;1.15;0.57;;;;;;;;;;5052123;28;20017;-62
2022/01/06 11:43:40;;;;;;;0.82;0.52;;;;;;;;;;5051937;28;20040;-63
2022/01/06 11:46:05;;;;;;;1.23;0.57;;;;;;;;;;5051844;28;20135;-63
2022/01/06 11:48:31;;;;;;;1.83;0.82;;;;;;;;;;5052046;28;20525;-62
2022/01/06 11:50:56;;;;;;;1.20;0.60;;;;;;;;;;5054463;28;20124;-65
2022/01/06 11:53:31;;;;;;;1.38;0.60;;;;;;;;;;5055900;28;20040;-63
2022/01/06 11:55:58;;;;;;;1.35;0.60;;;;;;;;;;5055614;28;20491;-64
2022/01/06 11:58:24;;;;;;;1.15;0.63;;;;;;;;;;5055883;28;20464;-62
2022/01/06 12:00:59;;;;;;;0.90;0.50;;;;;;;;;;5055808;28;20097;-63
2022/01/06 12:03:34;;;;;;;1.35;0.60;;;;;;;;;;5055679;28;20013;-63
2022/01/06 12:05:59;;;;;;;0.65;0.40;;;;;;;;;;5055477;28;20045;-63
2022/01/06 12:08:34;;;;;;;0.53;0.53;;;;;;;;;;5055698;28;20025;-63
2022/01/06 12:11:00;;;;;;;0.75;0.52;;;;;;;;;;5055335;28;20270;-62
2022/01/06 12:13:25;;;;;;;1.43;0.60;;;;;;;;;;5055527;28;20035;-64
2022/01/06 12:15:51;;;;;;;1.17;0.50;;;;;;;;;;5055420;28;20265;-64
2022/01/06 12:18:18;;;;;;;1.33;0.60;;;;;;;;;;5055396;28;20705;-64
2022/01/06 12:20:44;;;;;;;0.65;0.50;;;;;;;;;;5055486;28;20071;-64
2022/01/06 12:23:10;;;;;;;0.73;0.73;;;;;;;;;;5055253;28;20052;-64
2022/01/06 12:25:35;;;;;;;0.50;0.40;;;;;;;;;;5055191;28;20048;-63
2022/01/06 12:28:00;;;;;;;1.27;0.80;;;;;;;;;;5055162;28;20514;-63
2022/01/06 12:30:27;;;;;;;1.03;0.50;;;;;;;;;;5055257;28;20024;-63
2022/01/06 12:32:56;;;;;;;0.70;0.70;;;;;;;;;;5055069;28;20291;-63
2022/01/06 12:35:34;;;;;;;0.40;0.40;;;;;;;;;;5055091;28;20021;-63
2022/01/06 12:37:59;;;;;;;0.75;0.70;;;;;;;;;;5054992;28;20656;-63
2022/01/06 12:40:34;;;;;;;0.70;0.70;;;;;;;;;;5055113;28;20029;-64
2022/01/06 12:43:00;;;;;;;0.63;0.40;;;;;;;;;;5054852;28;20116;-64
2022/01/06 12:45:25;;;;;;;2.35;0.65;;;;;;;;;;5054813;28;20100;-64
2022/01/06 12:47:50;;;;;;;0.60;0.50;;;;;;;;;;5054805;28;20017;-63
2022/01/06 12:50:15;;;;;;;1.27;0.57;;;;;;;;;;5054786;28;20032;-63
2022/01/06 12:52:47;;;;;;;1.40;0.87;;;;;;;;;;5054895;28;20028;-62
2022/01/06 12:55:12;;;;;;;1.17;0.75;;;;;;;;;;5054691;28;20257;-64
2022/01/06 12:57:37;;;;;;;0.75;0.50;;;;;;;;;;5054574;28;20046;-64
2022/01/06 13:00:09;;;;;;;0.73;0.40;;;;;;;;;;5054596;28;20021;-63
2022/01/06 13:02:34;;;;;;;0.55;0.55;;;;;;;;;;5053835;28;20090;-63
2022/01/06 13:05:02;;;;;;;0.80;0.70;;;;;;;;;;5054319;28;20383;-64
2022/01/06 13:07:28;;;;;;;0.70;0.45;;;;;;;;;;5054340;28;20250;-63
2022/01/06 13:10:00;;;;;;;1.08;0.60;;;;;;;;;;5054436;28;20488;-64
2022/01/06 13:12:25;;;;;;;1.20;0.50;;;;;;;;;;5054426;28;20108;-64
2022/01/06 13:14:54;;;;;;;1.13;0.52;;;;;;;;;;5054644;28;20091;-63
2022/01/06 13:17:22;;;;;;;0.68;0.60;;;;;;;;;;5054268;28;20028;-65
2022/01/06 13:19:52;;;;;;;1.40;0.52;;;;;;;;;;5054193;28;20024;-64
2022/01/06 13:22:24;;;;;;;1.40;0.50;;;;;;;;;;5054181;28;20031;-63
2022/01/06 13:24:50;;;;;;;0.73;0.60;;;;;;;;;;5054084;28;20025;-63
2022/01/06 13:27:15;;;;;;;1.00;0.50;;;;;;;;;;5054068;28;20032;-63
2022/01/06 13:29:41;;;;;;;1.05;0.63;;;;;;;;;;5054359;28;20104;-63
2022/01/06 13:32:11;;;;;;;0.88;0.52;;;;;;;;;;5052585;28;20032;-63
2022/01/06 13:34:39;;;;;;;1.38;0.52;;;;;;;;;;5054064;28;20092;-64
2022/01/06 13:37:06;;;;;;;1.50;0.68;;;;;;;;;;5053893;28;20566;-63
2022/01/06 13:39:36;;;;;;;1.80;0.68;;;;;;;;;;5053793;28;20096;-64
2022/01/06 13:42:01;;;;;;;1.30;0.68;;;;;;;;;;5053736;28;20526;-64
2022/01/06 13:44:26;;;;;;;0.90;0.68;;;;;;;;;;5052629;28;20029;-63
2022/01/06 13:47:06;;;;;;;1.07;0.60;;;;;;;;;;5053705;28;20048;-64
2022/01/06 13:52:16;;;;;;;;;;;;;;;;;;5054147;28;20062;-63
2022/01/06 13:54:41;;;;;;;0.40;0.40;;;;;;;;;;5053754;28;19904;-64
2022/01/06 13:57:07;;;;;;;1.67;0.80;;;;;;;;;;5053492;28;20396;-65
2022/01/06 13:59:32;;;;;;;0.50;0.50;;;;;;;;;;5053404;28;20358;-64
2022/01/06 14:01:58;;;;;;;0.93;0.40;;;;;;;;;;5053402;28;20059;-64
2022/01/06 14:04:23;;;;;;;0.87;0.70;;;;;;;;;;5053280;28;20274;-63
2022/01/06 14:06:49;;;;;;;1.23;0.57;;;;;;;;;;5053352;28;20021;-65
2022/01/06 14:09:16;;;;;;;1.48;0.50;;;;;;;;;;5053293;28;20052;-65
2022/01/06 14:11:41;;;;;;;1.85;0.65;;;;;;;;;;5053231;28;20033;-64
2022/01/06 14:14:06;;;;;;;0.50;0.50;;;;;;;;;;5052084;28;20313;-64
2022/01/06 14:16:32;;;;;;;1.20;0.52;;;;;;;;;;5053291;28;20033;-63
2022/01/06 14:18:57;;;;;;;0.73;0.52;;;;;;;;;;5053350;28;20092;-63
2022/01/06 14:21:22;;;;;;;0.97;0.63;;;;;;;;;;5052984;28;20020;-64
2022/01/06 14:23:47;;;;;;;1.98;0.68;;;;;;;;;;5052963;28;20277;-64
2022/01/06 14:26:13;;;;;;;0.80;0.70;;;;;;;;;;5053074;28;20040;-64
2022/01/06 14:28:38;;;;;;;0.50;0.50;;;;;;;;;;5053065;28;20062;-63
2022/01/06 14:31:04;;;;;;;0.52;0.45;;;;;;;;;;5052784;28;20025;-64
2022/01/06 14:33:30;;;;;;;1.05;0.40;;;;;;;;;;5052728;28;20040;-63
2022/01/06 14:35:57;;;;;;;0.73;0.60;;;;;;;;;;5052743;28;20472;-64
2022/01/06 14:38:23;;;;;;;0.40;0.40;;;;;;;;;;5051564;28;20009;-64
2022/01/06 14:40:49;;;;;;;0.80;0.55;;;;;;;;;;5052720;28;20025;-65
2022/01/06 14:43:15;;;;;;;1.38;1.02;;;;;;;;;;5052721;28;20021;-64
2022/01/06 14:45:40;;;;;;;0.85;0.60;;;;;;;;;;5052852;28;20028;-63
2022/01/06 14:48:05;;;;;;;0.80;0.43;;;;;;;;;;5052542;28;20570;-64